createdAt,value
2018-03-25T00:01:26.345Z,980.18
2018-03-25T00:02:26.234Z,980.20
2018-03-25T00:04:18.958Z,980.14
2018-03-25T00:05:18.867Z,980.19
2018-03-25T00:07:12.150Z,980.16
2018-03-25T00:08:12.012Z,980.18
2018-03-25T00:10:04.760Z,980.16
2018-03-25T00:11:04.674Z,980.13
2018-03-25T00:12:57.460Z,980.18
2018-03-25T00:13:57.305Z,980.15
2018-03-25T00:15:50.068Z,980.20
2018-03-25T00:16:49.973Z,980.17
2018-03-25T00:18:42.728Z,980.17
2018-03-25T00:19:42.622Z,980.14
2018-03-25T00:21:35.379Z,980.20
2018-03-25T00:22:35.255Z,980.13
2018-03-25T00:24:28.000Z,980.19
2018-03-25T00:25:27.902Z,980.16
2018-03-25T00:27:21.200Z,980.11
2018-03-25T00:28:21.067Z,980.10
2018-03-25T00:30:13.833Z,980.13
2018-03-25T00:31:13.698Z,980.11
2018-03-25T00:33:07.001Z,980.11
2018-03-25T00:34:06.865Z,980.11
2018-03-25T00:35:59.621Z,980.12
2018-03-25T00:36:59.563Z,980.12
2018-03-25T00:38:52.300Z,980.12
2018-03-25T00:39:52.149Z,980.13
2018-03-25T00:41:45.421Z,980.14
2018-03-25T00:42:45.334Z,980.10
2018-03-25T00:44:38.083Z,980.07
2018-03-25T00:45:37.967Z,980.06
2018-03-25T00:47:30.745Z,980.08
2018-03-25T00:48:30.615Z,980.06
2018-03-25T00:50:23.415Z,980.03
2018-03-25T00:51:23.258Z,980.05
2018-03-25T00:53:16.009Z,980.06
2018-03-25T00:54:15.914Z,980.06
2018-03-25T00:56:08.695Z,980.02
2018-03-25T00:57:08.555Z,980.03
2018-03-25T00:59:01.400Z,980.03
2018-03-25T01:00:01.308Z,980.03
2018-03-25T01:01:54.061Z,980.00
2018-03-25T01:02:53.954Z,980.04
2018-03-25T01:04:46.702Z,980.04
2018-03-25T01:05:46.599Z,980.04
2018-03-25T01:07:39.367Z,980.04
2018-03-25T01:08:39.239Z,980.04
2018-03-25T01:10:32.532Z,980.01
2018-03-25T01:11:32.409Z,980.00
2018-03-25T01:13:25.159Z,980.00
2018-03-25T01:14:25.054Z,980.05
2018-03-25T01:16:17.802Z,980.03
2018-03-25T01:17:17.705Z,980.01
2018-03-25T01:19:10.461Z,980.00
2018-03-25T01:20:10.341Z,980.01
2018-03-25T01:22:03.087Z,979.98
2018-03-25T01:23:02.992Z,979.99
2018-03-25T01:24:55.763Z,980.00
2018-03-25T01:25:55.642Z,980.01
2018-03-25T01:27:48.380Z,979.95
2018-03-25T01:28:48.289Z,979.96
2018-03-25T01:30:41.142Z,980.05
2018-03-25T01:31:41.049Z,980.02
2018-03-25T01:33:33.805Z,980.00
2018-03-25T01:34:33.681Z,980.00
2018-03-25T01:36:26.445Z,980.04
2018-03-25T01:37:26.331Z,980.04
2018-03-25T01:39:19.096Z,980.08
2018-03-25T01:40:18.979Z,980.10
2018-03-25T01:42:11.761Z,980.14
2018-03-25T01:43:11.633Z,980.12
2018-03-25T01:45:04.382Z,980.12
2018-03-25T01:46:04.283Z,980.07
2018-03-25T01:47:57.032Z,980.11
2018-03-25T01:48:56.929Z,980.04
2018-03-25T01:50:49.709Z,980.07
2018-03-25T01:51:49.559Z,980.04
2018-03-25T01:53:42.318Z,980.00
2018-03-25T01:54:42.218Z,979.99
2018-03-25T01:56:34.994Z,980.00
2018-03-25T01:57:34.867Z,979.98
2018-03-25T01:59:27.614Z,980.01
2018-03-25T02:00:27.499Z,980.02
2018-03-25T02:02:20.274Z,980.01
2018-03-25T02:03:20.165Z,980.04
2018-03-25T02:05:13.503Z,979.96
2018-03-25T02:06:12.912Z,979.94
2018-03-25T02:08:06.173Z,979.93
2018-03-25T02:09:06.064Z,979.93
2018-03-25T02:10:58.823Z,979.89
2018-03-25T02:11:58.723Z,979.84
2018-03-25T02:13:51.497Z,979.86
2018-03-25T02:14:51.372Z,979.86
2018-03-25T02:16:44.098Z,979.83
2018-03-25T02:17:44.052Z,979.88
2018-03-25T02:19:36.843Z,979.93
2018-03-25T02:20:36.684Z,979.91
2018-03-25T02:22:29.423Z,979.93
2018-03-25T02:23:29.334Z,979.93
2018-03-25T02:25:22.085Z,979.94
2018-03-25T02:26:21.944Z,979.92
2018-03-25T02:28:14.714Z,979.94
2018-03-25T02:29:14.589Z,979.92
2018-03-25T02:31:07.360Z,979.91
2018-03-25T02:32:07.241Z,979.94
2018-03-25T02:33:59.995Z,979.95
2018-03-25T02:34:59.892Z,979.96
2018-03-25T02:36:52.654Z,980.03
2018-03-25T02:37:52.534Z,980.01
2018-03-25T02:39:45.293Z,980.01
2018-03-25T02:40:45.187Z,979.99
2018-03-25T02:42:37.984Z,979.98
2018-03-25T02:43:37.826Z,979.97
2018-03-25T02:45:30.575Z,979.92
2018-03-25T02:46:30.472Z,979.94
2018-03-25T02:48:23.245Z,979.99
2018-03-25T02:49:23.121Z,979.98
2018-03-25T02:51:16.900Z,979.96
2018-03-25T02:52:16.821Z,979.97
2018-03-25T02:54:09.565Z,979.96
2018-03-25T02:55:09.474Z,979.92
2018-03-25T02:57:02.698Z,979.95
2018-03-25T02:58:02.595Z,979.98
2018-03-25T02:59:55.396Z,980.01
2018-03-25T03:00:55.286Z,979.95
2018-03-25T03:02:48.023Z,979.97
2018-03-25T03:03:47.890Z,980.03
2018-03-25T03:05:40.654Z,980.02
2018-03-25T03:06:40.538Z,980.03
2018-03-25T03:08:33.819Z,980.07
2018-03-25T03:09:33.705Z,980.09
2018-03-25T03:11:27.044Z,980.09
2018-03-25T03:12:26.858Z,980.11
2018-03-25T03:14:21.144Z,980.12
2018-03-25T03:15:21.052Z,980.14
2018-03-25T03:17:13.820Z,980.12
2018-03-25T03:18:13.700Z,980.13
2018-03-25T03:20:06.952Z,980.21
2018-03-25T03:21:06.879Z,980.22
2018-03-25T03:22:59.619Z,980.20
2018-03-25T03:23:59.513Z,980.15
2018-03-25T03:25:52.754Z,980.22
2018-03-25T03:26:52.659Z,980.20
2018-03-25T03:28:45.927Z,980.18
2018-03-25T03:29:45.815Z,980.19
2018-03-25T03:31:38.601Z,980.20
2018-03-25T03:32:38.462Z,980.18
2018-03-25T03:34:31.210Z,980.24
2018-03-25T03:35:31.134Z,980.24
2018-03-25T03:37:23.892Z,980.25
2018-03-25T03:38:23.763Z,980.27
2018-03-25T03:40:17.015Z,980.28
2018-03-25T03:41:16.917Z,980.28
2018-03-25T03:43:09.710Z,980.26
2018-03-25T03:44:09.569Z,980.28
2018-03-25T03:46:02.309Z,980.27
2018-03-25T03:47:02.222Z,980.27
2018-03-25T03:48:54.990Z,980.28
2018-03-25T03:49:54.860Z,980.28
2018-03-25T03:51:47.632Z,980.31
2018-03-25T03:52:47.508Z,980.31
2018-03-25T03:54:40.277Z,980.33
2018-03-25T03:55:40.152Z,980.31
2018-03-25T03:57:32.897Z,980.31
2018-03-25T03:58:32.812Z,980.33
2018-03-25T04:00:25.553Z,980.36
2018-03-25T04:01:25.452Z,980.37
2018-03-25T04:03:18.193Z,980.40
2018-03-25T04:04:18.106Z,980.39
2018-03-25T04:06:10.873Z,980.36
2018-03-25T04:07:10.754Z,980.41
2018-03-25T04:09:03.549Z,980.43
2018-03-25T04:10:03.402Z,980.43
2018-03-25T04:11:56.164Z,980.49
2018-03-25T04:12:56.359Z,980.45
2018-03-25T04:14:48.787Z,980.48
2018-03-25T04:15:48.682Z,980.46
2018-03-25T04:17:41.454Z,980.46
2018-03-25T04:18:41.329Z,980.48
2018-03-25T04:20:34.093Z,980.47
2018-03-25T04:21:33.968Z,980.44
2018-03-25T04:23:26.746Z,980.47
2018-03-25T04:24:26.619Z,980.48
2018-03-25T04:26:19.386Z,980.48
2018-03-25T04:27:19.305Z,980.49
2018-03-25T04:29:12.047Z,980.51
2018-03-25T04:30:11.922Z,980.51
2018-03-25T04:32:04.706Z,980.48
2018-03-25T04:33:04.558Z,980.50
2018-03-25T04:34:57.335Z,980.49
2018-03-25T04:35:57.208Z,980.53
2018-03-25T04:37:49.963Z,980.50
2018-03-25T04:38:49.855Z,980.53
2018-03-25T04:40:42.632Z,980.50
2018-03-25T04:41:43.109Z,980.50
2018-03-25T04:43:35.271Z,980.51
2018-03-25T04:44:35.147Z,980.47
2018-03-25T04:46:27.927Z,980.51
2018-03-25T04:47:27.795Z,980.51
2018-03-25T04:49:20.566Z,980.57
2018-03-25T04:50:20.460Z,980.55
2018-03-25T04:52:13.222Z,980.56
2018-03-25T04:53:13.118Z,980.59
2018-03-25T04:55:05.901Z,980.61
2018-03-25T04:56:05.747Z,980.60
2018-03-25T04:57:58.515Z,980.59
2018-03-25T04:58:58.428Z,980.64
2018-03-25T05:00:51.149Z,980.66
2018-03-25T05:01:51.049Z,980.64
2018-03-25T05:03:43.814Z,980.70
2018-03-25T05:04:43.681Z,980.69
2018-03-25T05:06:36.436Z,980.70
2018-03-25T05:07:36.366Z,980.74
2018-03-25T05:09:29.087Z,980.68
2018-03-25T05:10:28.976Z,980.67
2018-03-25T05:12:21.745Z,980.71
2018-03-25T05:13:21.630Z,980.71
2018-03-25T05:15:14.398Z,980.73
2018-03-25T05:16:14.275Z,980.75
2018-03-25T05:18:07.022Z,980.74
2018-03-25T05:19:06.972Z,980.74
2018-03-25T05:20:59.677Z,980.73
2018-03-25T05:21:59.583Z,980.80
2018-03-25T05:23:52.353Z,980.78
2018-03-25T05:24:52.224Z,980.76
2018-03-25T05:26:44.965Z,980.79
2018-03-25T05:27:44.868Z,980.78
2018-03-25T05:29:37.616Z,980.80
2018-03-25T05:30:37.516Z,980.87
2018-03-25T05:32:30.288Z,980.81
2018-03-25T05:33:30.158Z,980.82
2018-03-25T05:35:22.909Z,980.83
2018-03-25T05:36:22.810Z,980.82
2018-03-25T05:38:15.562Z,980.84
2018-03-25T05:39:15.449Z,980.81
2018-03-25T05:41:08.226Z,980.85
2018-03-25T05:42:08.112Z,980.88
2018-03-25T05:44:00.855Z,980.88
2018-03-25T05:45:00.766Z,980.88
2018-03-25T05:46:53.543Z,980.89
2018-03-25T05:47:53.395Z,980.93
2018-03-25T05:49:46.147Z,980.87
2018-03-25T05:50:46.040Z,980.87
2018-03-25T05:52:39.336Z,980.92
2018-03-25T05:53:39.198Z,980.92
2018-03-25T05:55:33.112Z,980.93
2018-03-25T05:56:31.849Z,980.98
2018-03-25T05:58:24.614Z,980.95
2018-03-25T05:59:24.492Z,981.00
2018-03-25T06:01:17.302Z,980.99
2018-03-25T06:02:17.162Z,981.02
2018-03-25T06:04:09.968Z,981.02
2018-03-25T06:05:09.785Z,981.04
2018-03-25T06:07:02.542Z,980.97
2018-03-25T06:08:02.442Z,981.07
2018-03-25T06:09:55.177Z,981.04
2018-03-25T06:10:55.091Z,981.01
2018-03-25T06:12:47.858Z,981.04
2018-03-25T06:13:47.730Z,981.01
2018-03-25T06:15:40.985Z,981.06
2018-03-25T06:16:40.889Z,981.02
2018-03-25T06:18:33.674Z,981.03
2018-03-25T06:19:33.543Z,981.05
2018-03-25T06:21:26.370Z,981.06
2018-03-25T06:22:26.182Z,981.08
2018-03-25T06:24:18.938Z,981.12
2018-03-25T06:25:18.828Z,981.12
2018-03-25T06:27:11.592Z,981.09
2018-03-25T06:28:11.479Z,981.09
2018-03-25T06:30:04.225Z,981.11
2018-03-25T06:31:04.117Z,981.14
2018-03-25T06:32:56.873Z,981.17
2018-03-25T06:33:56.770Z,981.12
2018-03-25T06:35:49.643Z,981.18
2018-03-25T06:36:49.418Z,981.14
2018-03-25T06:38:43.784Z,981.20
2018-03-25T06:39:43.675Z,981.19
2018-03-25T06:41:35.435Z,981.21
2018-03-25T06:42:35.345Z,981.21
2018-03-25T06:44:28.119Z,981.21
2018-03-25T06:45:27.971Z,981.20
2018-03-25T06:47:20.715Z,981.29
2018-03-25T06:48:20.628Z,981.26
2018-03-25T06:50:14.035Z,981.29
2018-03-25T06:51:13.775Z,981.28
2018-03-25T06:53:07.049Z,981.29
2018-03-25T06:54:06.941Z,981.32
2018-03-25T06:55:59.741Z,981.27
2018-03-25T06:56:59.585Z,981.29
2018-03-25T06:58:52.333Z,981.35
2018-03-25T06:59:52.227Z,981.34
2018-03-25T07:01:44.995Z,981.37
2018-03-25T07:02:44.875Z,981.41
2018-03-25T07:04:37.636Z,981.39
2018-03-25T07:05:37.537Z,981.42
2018-03-25T07:07:30.297Z,981.49
2018-03-25T07:08:30.190Z,981.47
2018-03-25T07:10:23.439Z,981.50
2018-03-25T07:11:23.328Z,981.47
2018-03-25T07:13:16.103Z,981.50
2018-03-25T07:14:16.021Z,981.49
2018-03-25T07:16:08.815Z,981.50
2018-03-25T07:17:08.623Z,981.52
2018-03-25T07:19:01.401Z,981.55
2018-03-25T07:20:01.272Z,981.55
2018-03-25T07:21:54.035Z,981.60
2018-03-25T07:22:53.921Z,981.61
2018-03-25T07:24:46.706Z,981.60
2018-03-25T07:25:46.581Z,981.65
2018-03-25T07:27:39.314Z,981.61
2018-03-25T07:28:39.222Z,981.65
2018-03-25T07:30:31.981Z,981.65
2018-03-25T07:31:31.857Z,981.67
2018-03-25T07:33:24.628Z,981.69
2018-03-25T07:34:24.511Z,981.64
2018-03-25T07:36:17.380Z,981.73
2018-03-25T07:37:17.183Z,981.69
2018-03-25T07:39:09.922Z,981.69
2018-03-25T07:40:09.801Z,981.71
2018-03-25T07:42:02.614Z,981.69
2018-03-25T07:43:02.500Z,981.72
2018-03-25T07:44:55.231Z,981.72
2018-03-25T07:45:55.120Z,981.75
2018-03-25T07:47:47.873Z,981.77
2018-03-25T07:48:47.754Z,981.77
2018-03-25T07:50:40.520Z,981.79
2018-03-25T07:51:40.399Z,981.77
2018-03-25T07:53:33.145Z,981.84
2018-03-25T07:54:33.058Z,981.85
2018-03-25T07:56:25.816Z,981.87
2018-03-25T07:57:25.686Z,981.86
2018-03-25T07:59:18.432Z,981.90
2018-03-25T08:00:18.367Z,981.92
2018-03-25T08:02:11.176Z,981.92
2018-03-25T08:03:10.992Z,981.91
2018-03-25T08:05:03.727Z,981.91
2018-03-25T08:06:03.632Z,981.96
2018-03-25T08:07:56.386Z,981.99
2018-03-25T08:08:56.281Z,981.99
2018-03-25T08:10:49.135Z,982.03
2018-03-25T08:11:48.931Z,982.06
2018-03-25T08:13:42.206Z,982.08
2018-03-25T08:14:42.108Z,982.11
2018-03-25T08:16:34.838Z,982.13
2018-03-25T08:17:34.744Z,982.11
2018-03-25T08:19:27.487Z,982.11
2018-03-25T08:20:27.395Z,982.13
2018-03-25T08:22:20.197Z,982.11
2018-03-25T08:23:20.055Z,982.15
2018-03-25T08:25:12.908Z,982.14
2018-03-25T08:26:12.778Z,982.15
2018-03-25T08:28:05.531Z,982.14
2018-03-25T08:29:06.022Z,982.17
2018-03-25T08:30:58.191Z,982.18
2018-03-25T08:31:58.069Z,982.22
2018-03-25T08:33:50.895Z,982.26
2018-03-25T08:34:50.718Z,982.28
2018-03-25T08:36:43.486Z,982.23
2018-03-25T08:37:43.370Z,982.22
2018-03-25T08:39:36.686Z,982.27
2018-03-25T08:40:36.525Z,982.30
2018-03-25T08:42:29.267Z,982.30
2018-03-25T08:43:29.171Z,982.27
2018-03-25T08:45:21.939Z,982.34
2018-03-25T08:46:21.828Z,982.31
2018-03-25T08:48:15.078Z,982.38
2018-03-25T08:49:14.976Z,982.37
2018-03-25T08:51:07.776Z,982.38
2018-03-25T08:52:07.628Z,982.38
2018-03-25T08:54:00.388Z,982.34
2018-03-25T08:55:00.282Z,982.34
2018-03-25T08:56:53.037Z,982.33
2018-03-25T08:57:52.941Z,982.34
2018-03-25T08:59:46.179Z,982.34
2018-03-25T09:00:46.074Z,982.32
2018-03-25T09:02:38.835Z,982.32
2018-03-25T09:03:38.727Z,982.33
2018-03-25T09:05:31.512Z,982.28
2018-03-25T09:06:31.381Z,982.34
2018-03-25T09:08:24.247Z,982.32
2018-03-25T09:09:24.122Z,982.34
2018-03-25T09:11:16.878Z,982.36
2018-03-25T09:12:16.783Z,982.32
2018-03-25T09:14:09.533Z,982.35
2018-03-25T09:15:09.423Z,982.37
2018-03-25T09:17:02.357Z,982.41
2018-03-25T09:18:02.077Z,982.38
2018-03-25T09:19:55.665Z,982.36
2018-03-25T09:20:55.256Z,982.34
2018-03-25T09:22:47.989Z,982.34
2018-03-25T09:23:47.896Z,982.34
2018-03-25T09:25:41.159Z,982.35
2018-03-25T09:26:41.055Z,982.33
2018-03-25T09:28:33.791Z,982.30
2018-03-25T09:29:33.687Z,982.33
2018-03-25T09:31:26.725Z,982.30
2018-03-25T09:32:26.337Z,982.31
2018-03-25T09:34:19.120Z,982.33
2018-03-25T09:35:18.974Z,982.29
2018-03-25T09:37:11.748Z,982.33
2018-03-25T09:38:11.629Z,982.36
2018-03-25T09:40:04.366Z,982.35
2018-03-25T09:41:04.316Z,982.32
2018-03-25T09:42:57.049Z,982.38
2018-03-25T09:43:56.928Z,982.39
2018-03-25T09:45:49.695Z,982.41
2018-03-25T09:46:49.566Z,982.38
2018-03-25T09:48:42.854Z,982.41
2018-03-25T09:49:42.747Z,982.41
2018-03-25T09:51:35.498Z,982.44
2018-03-25T09:52:35.396Z,982.42
2018-03-25T09:54:28.156Z,982.44
2018-03-25T09:55:28.024Z,982.45
2018-03-25T09:57:20.798Z,982.44
2018-03-25T09:58:20.715Z,982.52
2018-03-25T10:00:14.468Z,982.51
2018-03-25T10:01:14.355Z,982.55
2018-03-25T10:03:07.629Z,982.51
2018-03-25T10:04:07.492Z,982.54
2018-03-25T10:06:00.271Z,982.51
2018-03-25T10:07:00.146Z,982.50
2018-03-25T10:08:52.890Z,982.50
2018-03-25T10:09:52.822Z,982.51
2018-03-25T10:11:45.572Z,982.50
2018-03-25T10:12:45.435Z,982.52
2018-03-25T10:14:38.213Z,982.57
2018-03-25T10:15:38.091Z,982.53
2018-03-25T10:17:30.868Z,982.56
2018-03-25T10:18:30.738Z,982.49
2018-03-25T10:20:23.480Z,982.58
2018-03-25T10:21:23.386Z,982.60
2018-03-25T10:23:16.469Z,982.58
2018-03-25T10:24:16.034Z,982.60
2018-03-25T10:26:08.808Z,982.59
2018-03-25T10:27:08.683Z,982.62
2018-03-25T10:29:01.451Z,982.61
2018-03-25T10:30:01.336Z,982.62
2018-03-25T10:31:54.079Z,982.63
2018-03-25T10:32:53.973Z,982.63
2018-03-25T10:34:46.786Z,982.62
2018-03-25T10:35:46.648Z,982.57
2018-03-25T10:37:39.355Z,982.59
2018-03-25T10:38:39.288Z,982.59
2018-03-25T10:40:32.027Z,982.56
2018-03-25T10:41:31.914Z,982.54
2018-03-25T10:43:24.668Z,982.55
2018-03-25T10:44:24.561Z,982.51
2018-03-25T10:46:17.331Z,982.55
2018-03-25T10:47:17.231Z,982.52
2018-03-25T10:49:09.975Z,982.54
2018-03-25T10:50:09.879Z,982.56
2018-03-25T10:52:02.863Z,982.57
2018-03-25T10:53:02.518Z,982.57
2018-03-25T10:54:55.276Z,982.53
2018-03-25T10:55:55.182Z,982.52
2018-03-25T10:57:48.172Z,982.56
2018-03-25T10:58:47.799Z,982.56
2018-03-25T11:00:40.541Z,982.61
2018-03-25T11:01:40.464Z,982.58
2018-03-25T11:03:33.225Z,982.60
2018-03-25T11:04:33.087Z,982.62
2018-03-25T11:06:25.836Z,982.57
2018-03-25T11:07:25.757Z,982.58
2018-03-25T11:09:20.038Z,982.62
2018-03-25T11:10:19.923Z,982.60
2018-03-25T11:12:12.692Z,982.61
2018-03-25T11:13:12.576Z,982.64
2018-03-25T11:15:05.333Z,982.64
2018-03-25T11:16:05.214Z,982.63
2018-03-25T11:17:57.992Z,982.61
2018-03-25T11:18:57.878Z,982.66
2018-03-25T11:20:50.649Z,982.69
2018-03-25T11:21:50.509Z,982.65
2018-03-25T11:23:43.766Z,982.71
2018-03-25T11:24:43.683Z,982.71
2018-03-25T11:26:41.705Z,982.67
2018-03-25T11:27:41.339Z,982.70
2018-03-25T11:29:34.590Z,982.64
2018-03-25T11:30:34.487Z,982.65
2018-03-25T11:32:27.816Z,982.71
2018-03-25T11:33:27.651Z,982.69
2018-03-25T11:35:20.396Z,982.66
2018-03-25T11:36:20.298Z,982.68
2018-03-25T11:38:14.599Z,982.68
2018-03-25T11:39:14.483Z,982.66
2018-03-25T11:41:07.232Z,982.71
2018-03-25T11:42:07.189Z,982.66
2018-03-25T11:44:00.009Z,982.70
2018-03-25T11:44:59.873Z,982.69
2018-03-25T11:46:52.633Z,982.71
2018-03-25T11:47:52.556Z,982.71
2018-03-25T11:49:45.831Z,982.73
2018-03-25T11:50:45.682Z,982.78
2018-03-25T11:52:38.938Z,982.74
2018-03-25T11:53:38.880Z,982.75
2018-03-25T11:55:31.603Z,982.77
2018-03-25T11:56:31.491Z,982.76
2018-03-25T11:58:24.243Z,982.81
2018-03-25T11:59:24.131Z,982.82
2018-03-25T12:01:16.911Z,982.80
2018-03-25T12:02:16.779Z,982.79
2018-03-25T12:04:10.039Z,982.76
2018-03-25T12:05:09.939Z,982.77
2018-03-25T12:07:03.374Z,982.78
2018-03-25T12:08:03.108Z,982.76
2018-03-25T12:09:55.852Z,982.78
2018-03-25T12:10:55.770Z,982.83
2018-03-25T12:12:48.505Z,982.83
2018-03-25T12:13:48.398Z,982.83
2018-03-25T12:15:41.144Z,982.84
2018-03-25T12:16:41.063Z,982.86
2018-03-25T12:18:33.806Z,982.84
2018-03-25T12:19:33.700Z,982.81
2018-03-25T12:21:26.489Z,982.79
2018-03-25T12:22:26.339Z,982.74
2018-03-25T12:24:19.200Z,982.78
2018-03-25T12:25:19.090Z,982.76
2018-03-25T12:27:11.847Z,982.76
2018-03-25T12:28:11.748Z,982.72
2018-03-25T12:30:04.634Z,982.71
2018-03-25T12:31:04.495Z,982.72
2018-03-25T12:32:57.737Z,982.72
2018-03-25T12:33:57.657Z,982.73
2018-03-25T12:35:57.995Z,982.77
2018-03-25T12:36:57.873Z,982.78
2018-03-25T12:38:50.607Z,982.72
2018-03-25T12:39:50.510Z,982.75
2018-03-25T12:41:43.389Z,982.74
2018-03-25T12:42:43.302Z,982.75
2018-03-25T12:44:36.051Z,982.72
2018-03-25T12:45:35.919Z,982.72
2018-03-25T12:47:28.680Z,982.78
2018-03-25T12:48:28.560Z,982.74
2018-03-25T12:50:21.330Z,982.72
2018-03-25T12:51:21.228Z,982.75
2018-03-25T12:53:14.153Z,982.73
2018-03-25T12:54:14.032Z,982.73
2018-03-25T12:56:06.700Z,982.74
2018-03-25T12:57:06.602Z,982.77
2018-03-25T12:58:59.428Z,982.73
2018-03-25T12:59:59.256Z,982.73
2018-03-25T13:01:51.996Z,982.70
2018-03-25T13:02:51.921Z,982.70
2018-03-25T13:04:44.763Z,982.75
2018-03-25T13:05:44.641Z,982.72
2018-03-25T13:07:37.393Z,982.76
2018-03-25T13:08:37.295Z,982.71
2018-03-25T13:10:30.066Z,982.78
2018-03-25T13:11:29.944Z,982.73
2018-03-25T13:13:22.714Z,982.73
2018-03-25T13:14:22.591Z,982.72
2018-03-25T13:16:15.365Z,982.75
2018-03-25T13:17:15.235Z,982.76
2018-03-25T13:19:08.491Z,982.77
2018-03-25T13:20:08.400Z,982.79
2018-03-25T13:22:01.160Z,982.80
2018-03-25T13:23:01.039Z,982.78
2018-03-25T13:24:53.790Z,982.83
2018-03-25T13:25:53.693Z,982.80
2018-03-25T13:27:46.812Z,982.78
2018-03-25T13:28:46.446Z,982.81
2018-03-25T13:30:39.181Z,982.81
2018-03-25T13:31:39.088Z,982.83
2018-03-25T13:33:31.854Z,982.88
2018-03-25T13:34:31.737Z,982.78
2018-03-25T13:36:24.497Z,982.83
2018-03-25T13:37:24.377Z,982.86
2018-03-25T13:39:17.168Z,982.88
2018-03-25T13:40:17.032Z,982.85
2018-03-25T13:42:11.306Z,982.84
2018-03-25T13:43:11.205Z,982.92
2018-03-25T13:45:03.975Z,982.89
2018-03-25T13:46:03.902Z,982.88
2018-03-25T13:47:56.608Z,982.87
2018-03-25T13:48:56.507Z,982.90
2018-03-25T13:50:49.270Z,982.85
2018-03-25T13:51:49.162Z,982.97
2018-03-25T13:53:41.995Z,982.88
2018-03-25T13:54:41.905Z,982.85
2018-03-25T13:56:35.444Z,982.86
2018-03-25T13:57:35.060Z,982.85
2018-03-25T13:59:28.320Z,982.84
2018-03-25T14:00:28.252Z,982.84
2018-03-25T14:02:22.392Z,982.85
2018-03-25T14:03:22.208Z,982.81
2018-03-25T14:05:15.041Z,982.87
2018-03-25T14:06:14.954Z,982.85
2018-03-25T14:08:09.098Z,982.79
2018-03-25T14:09:08.784Z,982.84
2018-03-25T14:11:02.486Z,982.83
2018-03-25T14:12:02.286Z,982.82
2018-03-25T14:13:55.161Z,982.85
2018-03-25T14:14:55.061Z,982.81
2018-03-25T14:16:48.436Z,982.83
2018-03-25T14:17:48.317Z,982.83
2018-03-25T14:19:41.599Z,982.84
2018-03-25T14:20:41.485Z,982.79
2018-03-25T14:22:35.233Z,982.78
2018-03-25T14:23:34.111Z,982.81
2018-03-25T14:25:29.937Z,982.84
2018-03-25T14:26:29.831Z,982.95
2018-03-25T14:28:23.089Z,982.82
2018-03-25T14:29:22.998Z,982.84
2018-03-25T14:31:16.267Z,982.81
2018-03-25T14:32:16.145Z,982.87
2018-03-25T14:34:08.992Z,982.86
2018-03-25T14:35:08.895Z,982.86
2018-03-25T14:37:02.691Z,982.85
2018-03-25T14:38:02.579Z,982.82
2018-03-25T14:39:55.335Z,982.84
2018-03-25T14:40:55.232Z,982.81
2018-03-25T14:42:47.973Z,982.92
2018-03-25T14:43:47.874Z,982.88
2018-03-25T14:45:40.619Z,982.85
2018-03-25T14:46:40.518Z,982.88
2018-03-25T14:48:33.295Z,982.89
2018-03-25T14:49:33.808Z,982.89
2018-03-25T14:51:25.898Z,982.87
2018-03-25T14:52:25.799Z,982.89
2018-03-25T14:54:19.085Z,982.95
2018-03-25T14:55:18.958Z,982.91
2018-03-25T14:57:11.726Z,982.85
2018-03-25T14:58:11.609Z,982.89
2018-03-25T15:00:04.896Z,982.91
2018-03-25T15:01:04.792Z,982.88
2018-03-25T15:03:10.641Z,982.89
2018-03-25T15:04:10.535Z,982.94
2018-03-25T15:06:03.287Z,982.91
2018-03-25T15:07:03.167Z,982.88
2018-03-25T15:08:55.907Z,982.88
2018-03-25T15:09:55.822Z,982.89
2018-03-25T15:11:49.366Z,982.92
2018-03-25T15:12:49.005Z,982.89
2018-03-25T15:14:59.849Z,982.90
2018-03-25T15:15:59.793Z,982.96
2018-03-25T15:17:52.497Z,982.95
2018-03-25T15:18:52.429Z,982.95
2018-03-25T15:20:45.136Z,982.96
2018-03-25T15:21:45.061Z,982.92
2018-03-25T15:23:37.818Z,982.95
2018-03-25T15:24:37.732Z,982.97
2018-03-25T15:26:30.463Z,982.97
2018-03-25T15:27:30.330Z,983.03
2018-03-25T15:29:23.102Z,982.99
2018-03-25T15:30:22.977Z,983.02
2018-03-25T15:32:15.836Z,983.00
2018-03-25T15:33:15.748Z,982.98
2018-03-25T15:35:08.512Z,982.98
2018-03-25T15:36:08.371Z,983.00
2018-03-25T15:38:01.664Z,983.00
2018-03-25T15:39:01.576Z,983.02
2018-03-25T15:40:54.299Z,983.06
2018-03-25T15:41:54.192Z,983.06
2018-03-25T15:43:46.924Z,983.02
2018-03-25T15:44:46.840Z,983.02
2018-03-25T15:46:39.688Z,983.02
2018-03-25T15:47:39.579Z,983.04
2018-03-25T15:49:32.318Z,983.03
2018-03-25T15:50:32.234Z,983.00
2018-03-25T15:52:25.028Z,982.98
2018-03-25T15:53:24.876Z,982.98
2018-03-25T15:55:17.712Z,983.04
2018-03-25T15:56:17.622Z,983.01
2018-03-25T15:58:11.354Z,983.03
2018-03-25T15:59:10.449Z,983.03
2018-03-25T16:01:03.587Z,983.05
2018-03-25T16:02:03.453Z,983.06
2018-03-25T16:03:56.832Z,983.09
2018-03-25T16:04:56.199Z,983.12
2018-03-25T16:06:51.337Z,983.11
2018-03-25T16:07:48.931Z,983.13
2018-03-25T16:09:42.016Z,983.13
2018-03-25T16:10:41.576Z,983.11
2018-03-25T16:12:34.418Z,983.13
2018-03-25T16:13:34.319Z,983.12
2018-03-25T16:15:27.095Z,983.16
2018-03-25T16:16:26.973Z,983.20
2018-03-25T16:18:19.725Z,983.21
2018-03-25T16:19:19.614Z,983.19
2018-03-25T16:21:12.487Z,983.21
2018-03-25T16:22:12.409Z,983.23
2018-03-25T16:24:05.132Z,983.27
2018-03-25T16:25:05.012Z,983.26
2018-03-25T16:26:57.778Z,983.23
2018-03-25T16:27:57.664Z,983.23
2018-03-25T16:29:50.526Z,983.28
2018-03-25T16:30:50.408Z,983.30
2018-03-25T16:32:43.178Z,983.30
2018-03-25T16:33:43.076Z,983.34
2018-03-25T16:35:35.806Z,983.31
2018-03-25T16:36:35.709Z,983.34
2018-03-25T16:38:28.467Z,983.38
2018-03-25T16:39:28.363Z,983.38
2018-03-25T16:41:21.629Z,983.40
2018-03-25T16:42:21.518Z,983.35
2018-03-25T16:44:14.274Z,983.40
2018-03-25T16:45:14.174Z,983.43
2018-03-25T16:47:06.938Z,983.40
2018-03-25T16:48:06.806Z,983.40
2018-03-25T16:49:59.586Z,983.45
2018-03-25T16:50:59.455Z,983.46
2018-03-25T16:52:52.229Z,983.46
2018-03-25T16:53:52.125Z,983.49
2018-03-25T16:55:44.976Z,983.52
2018-03-25T16:56:44.849Z,983.51
2018-03-25T16:58:37.596Z,983.50
2018-03-25T16:59:37.500Z,983.53
2018-03-25T17:01:30.365Z,983.47
2018-03-25T17:02:30.251Z,983.56
2018-03-25T17:04:23.509Z,983.58
2018-03-25T17:05:23.423Z,983.58
2018-03-25T17:07:16.178Z,983.63
2018-03-25T17:08:16.064Z,983.64
2018-03-25T17:10:13.843Z,983.62
2018-03-25T17:11:13.723Z,983.64
2018-03-25T17:13:07.011Z,983.63
2018-03-25T17:14:06.901Z,983.66
2018-03-25T17:15:59.628Z,983.65
2018-03-25T17:16:59.520Z,983.68
2018-03-25T17:18:52.285Z,983.68
2018-03-25T17:19:52.171Z,983.70
2018-03-25T17:21:44.928Z,983.70
2018-03-25T17:22:44.826Z,983.72
2018-03-25T17:24:37.587Z,983.71
2018-03-25T17:25:37.463Z,983.70
2018-03-25T17:27:30.253Z,983.68
2018-03-25T17:28:30.110Z,983.69
2018-03-25T17:30:22.992Z,983.67
2018-03-25T17:31:22.860Z,983.70
2018-03-25T17:33:16.121Z,983.72
2018-03-25T17:34:16.056Z,983.75
2018-03-25T17:36:08.789Z,983.80
2018-03-25T17:37:08.669Z,983.78
2018-03-25T17:39:01.430Z,983.76
2018-03-25T17:40:01.319Z,983.77
2018-03-25T17:41:54.218Z,983.78
2018-03-25T17:42:53.965Z,983.84
2018-03-25T17:44:47.225Z,983.79
2018-03-25T17:45:47.121Z,983.81
2018-03-25T17:47:39.903Z,983.83
2018-03-25T17:48:39.768Z,983.82
2018-03-25T17:50:32.621Z,983.81
2018-03-25T17:51:32.515Z,983.82
2018-03-25T17:53:26.322Z,983.80
2018-03-25T17:54:26.214Z,983.82
2018-03-25T17:56:18.954Z,983.85
2018-03-25T17:57:18.835Z,983.89
2018-03-25T17:59:11.883Z,983.90